Longford, Ireland
Current Conditions -  °F | °C
As of 4:00 AM on Monday 29 Dec 2014 (Local Time) from EIME Reporting Station
Few Clouds Few Clouds  
Wind Chill: 30°   Ceiling: Unl
Heat Index: 30°   Visibility: 6mi
Dew Point: 27°   Wind: 3mph
Humidity: 86%   Direction: 220°SW
Pressure: 30.68"   Gusts: NA
Location:  53.09°N, 7.62°W
Report Text: EIME 290400Z 22003KT 9999 FEW025 M01/M03 Q1039
Loading
Personal Weather Stations






























Interactive Weather Map New forecast layout! Learn more

10-Day Weather Forecast

Advertisements
Track Severe Weather on mobile